Time;durP1;ratioP1;P1;durP2;ratioP2;P2;SDS_P1;SDS_P2;PMS_P1;PMS_P2;Temp;Humidity;BMP_temperature;BMP_pressure;BME280_temperature;BME280_humidity;BME280_pressure;Samples;Min_cycle;Max_cycle;Signal;HPM_P1;HPM_P2
2023/12/20 00:01:00;;;;;;;10.73;7.32;;;;;;;5.52;93.95;100496.28;4965346;28;20109;-76
2023/12/20 00:03:27;;;;;;;8.23;6.85;;;;;;;5.67;93.31;100489.81;4982196;28;20069;-74
2023/12/20 00:05:58;;;;;;;7.72;6.57;;;;;;;5.74;92.57;100491.09;4983523;28;20066;-75
2023/12/20 00:08:26;;;;;;;8.15;6.82;;;;;;;5.65;92.93;100491.75;4985036;28;20511;-76
2023/12/20 00:10:52;;;;;;;7.93;7.13;;;;;;;5.64;93.29;100483.78;4985358;28;20046;-76
2023/12/20 00:13:19;;;;;;;8.45;7.22;;;;;;;5.65;93.45;100483.69;4985080;28;20051;-75
2023/12/20 00:15:47;;;;;;;9.57;6.38;;;;;;;5.60;93.34;100485.81;4984777;28;20472;-75
2023/12/20 00:18:14;;;;;;;7.75;6.75;;;;;;;5.64;93.35;100473.88;4984347;28;20046;-75
2023/12/20 00:20:40;;;;;;;7.63;6.82;;;;;;;5.73;92.78;100470.53;4984462;28;20065;-75
2023/12/20 00:23:08;;;;;;;7.45;6.28;;;;;;;5.67;93.34;100468.28;4979696;28;20117;-75
2023/12/20 00:25:35;;;;;;;8.40;6.88;;;;;;;5.76;92.58;100478.38;4976759;28;20047;-75
2023/12/20 00:28:03;;;;;;;7.53;6.63;;;;;;;5.68;93.01;100475.38;4976373;28;20080;-76
2023/12/20 00:30:29;;;;;;;7.20;6.50;;;;;;;5.77;92.92;100463.94;4976966;28;20038;-76
2023/12/20 00:32:56;;;;;;;8.10;6.60;;;;;;;5.77;92.89;100469.31;4975571;28;20069;-74
2023/12/20 00:35:23;;;;;;;7.93;6.93;;;;;;;5.64;93.50;100463.13;4973986;28;20058;-75
2023/12/20 00:37:50;;;;;;;8.95;6.80;;;;;;;5.71;93.21;100461.72;4974918;28;20496;-75
2023/12/20 00:40:17;;;;;;;6.70;6.00;;;;;;;5.76;93.02;100461.38;4974446;28;20047;-75
2023/12/20 00:42:43;;;;;;;7.10;6.03;;;;;;;5.73;92.97;100457.06;4972981;28;20062;-76
2023/12/20 00:45:10;;;;;;;7.78;5.95;;;;;;;5.56;93.99;100462.81;4973117;28;20050;-75
2023/12/20 00:47:36;;;;;;;8.80;6.30;;;;;;;5.63;93.55;100456.03;4972702;28;20050;-76
2023/12/20 00:50:05;;;;;;;8.90;6.90;;;;;;;5.52;94.14;100458.63;4972360;28;20055;-76
2023/12/20 00:52:31;;;;;;;7.07;6.22;;;;;;;5.72;93.39;100459.88;4971881;28;20110;-75
2023/12/20 00:54:58;;;;;;;7.22;6.22;;;;;;;5.69;93.31;100454.72;4955072;28;20044;-75
2023/12/20 00:57:25;;;;;;;6.55;5.88;;;;;;;5.74;92.85;100453.41;4953007;28;20161;-76
2023/12/20 00:59:52;;;;;;;6.60;5.95;;;;;;;5.76;92.64;100456.84;4952847;28;20055;-75
2023/12/20 01:02:19;;;;;;;6.18;5.57;;;;;;;5.69;92.79;100452.88;4953721;28;20500;-76
2023/12/20 01:04:45;;;;;;;6.50;5.85;;;;;;;5.76;92.67;100451.47;4952837;28;20098;-76
2023/12/20 01:07:12;;;;;;;8.93;6.30;;;;;;;5.58;93.83;100463.56;4954565;28;20047;-76
2023/12/20 01:09:39;;;;;;;9.75;6.40;;;;;;;5.73;93.29;100466.97;4956633;28;20047;-75
2023/12/20 01:12:05;;;;;;;9.27;6.40;;;;;;;5.71;93.70;100464.41;4956693;28;20051;-76
2023/12/20 01:14:32;;;;;;;7.53;6.35;;;;;;;5.65;93.99;100458.59;4959707;28;20047;-76
2023/12/20 01:16:59;;;;;;;8.13;6.93;;;;;;;5.61;93.85;100457.97;4946257;28;20091;-77
2023/12/20 01:19:26;;;;;;;7.65;6.50;;;;;;;5.69;93.51;100460.09;4963825;28;20043;-76
2023/12/20 01:21:53;;;;;;;6.97;6.13;;;;;;;5.63;93.79;100466.78;4964428;28;20054;-76
2023/12/20 01:24:20;;;;;;;6.43;5.55;;;;;;;5.62;93.95;100464.22;4963175;28;20047;-76
2023/12/20 01:26:46;;;;;;;6.70;5.72;;;;;;;5.73;93.83;100462.47;4962818;28;20051;-76
2023/12/20 01:29:14;;;;;;;5.88;5.28;;;;;;;5.81;93.07;100468.16;4963757;28;20489;-77
2023/12/20 01:31:40;;;;;;;6.68;5.55;;;;;;;5.78;93.15;100467.50;4963411;28;20043;-76
2023/12/20 01:34:07;;;;;;;6.65;5.82;;;;;;;5.73;93.28;100462.47;4959404;28;20051;-77
2023/12/20 01:36:34;;;;;;;6.55;5.85;;;;;;;5.62;94.07;100459.69;4958932;28;20048;-76
2023/12/20 01:39:00;;;;;;;6.35;5.70;;;;;;;5.77;93.43;100458.56;4957134;28;20086;-75
2023/12/20 01:41:28;;;;;;;5.78;4.90;;;;;;;5.76;93.27;100475.69;4956180;28;20138;-77
2023/12/20 01:43:55;;;;;;;5.70;4.97;;;;;;;5.71;93.85;100459.03;4955038;28;20055;-76
2023/12/20 01:46:22;;;;;;;5.57;4.95;;;;;;;5.67;93.88;100452.13;4954507;28;20043;-75
2023/12/20 01:48:48;;;;;;;6.72;5.20;;;;;;;5.75;93.69;100452.44;4954520;28;20046;-76
2023/12/20 01:51:16;;;;;;;6.35;5.75;;;;;;;5.65;94.03;100453.22;4955270;28;20054;-74
2023/12/20 01:53:43;;;;;;;4.95;4.45;;;;;;;5.60;94.40;100449.97;4956021;28;20377;-75
2023/12/20 01:56:11;;;;;;;5.28;4.78;;;;;;;5.73;93.88;100448.16;4955958;28;20075;-75
2023/12/20 01:58:44;;;;;;;5.70;4.82;;;;;;;5.70;93.92;100445.66;4956306;28;20051;-76
2023/12/20 02:01:11;;;;;;;6.28;5.40;;;;;;;5.72;93.72;100449.97;4956489;28;20496;-76
2023/12/20 02:03:40;;;;;;;7.55;5.53;;;;;;;5.69;93.98;100443.94;4957080;28;20102;-76
2023/12/20 02:09:53;;;;;;;7.78;6.45;;;;;;;5.58;94.25;100431.28;4958523;28;20054;-77
2023/12/20 02:12:21;;;;;;;7.45;6.65;;;;;;;5.65;94.36;100429.00;4959828;28;20057;-76
2023/12/20 02:14:48;;;;;;;8.48;6.68;;;;;;;5.77;93.61;100428.09;4959743;28;20039;-76
2023/12/20 02:17:16;;;;;;;7.70;6.70;;;;;;;5.77;93.54;100437.03;4962070;28;20043;-74
2023/12/20 02:19:43;;;;;;;7.13;6.43;;;;;;;5.68;93.55;100439.53;4963502;28;20114;-76
2023/12/20 02:22:12;;;;;;;8.05;7.07;;;;;;;5.70;93.89;100441.16;4964819;28;20051;-76
2023/12/20 02:24:39;;;;;;;10.23;8.57;;;;;;;5.68;93.70;100431.47;4963802;28;20131;-76
2023/12/20 02:27:07;;;;;;;9.20;7.75;;;;;;;5.70;94.08;100429.50;4964547;28;20074;-75
2023/12/20 02:29:35;;;;;;;11.98;8.20;;;;;;;5.79;93.30;100442.31;4964812;28;20057;-76
2023/12/20 02:32:02;;;;;;;8.63;7.63;;;;;;;5.69;93.37;100427.78;4961778;28;20048;-77
2023/12/20 02:34:29;;;;;;;7.80;7.00;;;;;;;5.79;93.16;100435.13;4960575;28;20496;-75
2023/12/20 02:36:56;;;;;;;8.63;7.72;;;;;;;5.81;93.04;100438.53;4961620;28;20047;-76
2023/12/20 02:39:23;;;;;;;11.18;7.88;;;;;;;5.65;93.47;100432.56;4960884;28;20541;-76
2023/12/20 02:41:50;;;;;;;9.63;7.68;;;;;;;5.81;92.76;100427.78;4944030;29;20079;-76
2023/12/20 02:44:16;;;;;;;9.77;8.15;;;;;;;5.81;92.66;100426.94;4958804;28;20043;-77
2023/12/20 02:46:43;;;;;;;12.32;8.77;;;;;;;5.77;93.28;100433.47;4958281;28;20044;-75
2023/12/20 02:49:10;;;;;;;12.52;8.93;;;;;;;5.74;93.18;100437.28;4956808;28;20059;-76
2023/12/20 02:51:38;;;;;;;10.60;8.82;;;;;;;5.88;92.73;100430.00;4956529;28;20043;-75
2023/12/20 02:54:05;;;;;;;9.90;8.77;;;;;;;5.81;92.70;100441.25;4964745;28;20106;-76
2023/12/20 02:56:33;;;;;;;10.00;8.73;;;;;;;5.79;92.61;100432.41;4973954;28;20507;-75
2023/12/20 02:59:00;;;;;;;9.10;7.47;;;;;;;5.74;93.10;100437.28;4975225;28;20518;-75
2023/12/20 03:01:29;;;;;;;12.10;9.50;;;;;;;5.73;93.21;100432.00;4977982;28;20058;-74
2023/12/20 03:03:55;;;;;;;12.80;9.32;;;;;;;5.78;93.02;100435.19;4977591;28;20071;-76
2023/12/20 03:06:22;;;;;;;10.32;8.82;;;;;;;5.74;93.27;100431.88;4977569;28;20205;-75
2023/12/20 03:08:49;;;;;;;12.38;8.63;;;;;;;5.73;92.99;100440.94;4977220;28;20053;-76
2023/12/20 03:11:15;;;;;;;13.10;9.35;;;;;;;5.71;93.06;100442.88;4975733;28;20071;-76
2023/12/20 03:13:42;;;;;;;14.27;8.65;;;;;;;5.80;92.31;100442.22;4975544;28;20488;-76
2023/12/20 03:16:13;;;;;;;12.80;8.88;;;;;;;5.73;92.58;100443.63;4975409;28;20479;-77
2023/12/20 03:18:40;;;;;;;10.63;6.75;;;;;;;5.68;93.09;100442.22;4975966;28;20051;-75
2023/12/20 03:21:06;;;;;;;11.32;7.85;;;;;;;5.75;92.32;100455.13;4976125;28;20514;-76
2023/12/20 03:23:33;;;;;;;11.77;7.90;;;;;;;5.81;92.09;100449.31;4977149;28;20097;-76
2023/12/20 03:26:00;;;;;;;15.65;7.40;;;;;;;5.78;91.79;100449.50;4978058;28;20141;-76
2023/12/20 03:28:27;;;;;;;13.80;7.93;;;;;;;5.69;92.37;100447.50;4979157;28;20105;-75
2023/12/20 03:30:54;;;;;;;17.17;7.28;;;;;;;5.68;92.41;100447.59;4980239;28;20110;-76
2023/12/20 03:33:21;;;;;;;13.73;7.05;;;;;;;5.69;92.23;100439.41;4980920;28;20085;-75
2023/12/20 03:35:47;;;;;;;7.93;6.32;;;;;;;5.74;91.86;100437.28;4965324;28;20043;-78
2023/12/20 03:38:14;;;;;;;10.20;6.30;;;;;;;5.77;91.69;100453.19;4984380;28;20046;-77
2023/12/20 03:40:40;;;;;;;12.38;7.03;;;;;;;5.57;92.53;100446.56;4984296;28;20082;-76
2023/12/20 03:43:08;;;;;;;14.38;6.30;;;;;;;5.69;91.96;100444.81;4980943;28;20050;-77
2023/12/20 03:45:34;;;;;;;9.68;6.20;;;;;;;5.66;92.28;100436.97;4982235;28;20039;-78
2023/12/20 03:48:01;;;;;;;8.88;6.10;;;;;;;5.68;92.40;100443.09;4980508;28;20051;-78
2023/12/20 03:50:28;;;;;;;11.68;6.65;;;;;;;5.71;92.22;100436.66;4981005;28;20050;-77
2023/12/20 03:52:55;;;;;;;13.02;5.47;;;;;;;5.73;91.95;100440.94;4979794;28;20435;-77
2023/12/20 03:55:22;;;;;;;10.65;5.35;;;;;;;5.75;91.42;100433.59;4960368;28;20047;-78
2023/12/20 03:57:49;;;;;;;13.90;5.20;;;;;;;5.61;92.26;100431.06;4961033;28;20105;-78
2023/12/20 04:00:16;;;;;;;11.98;5.57;;;;;;;5.61;92.34;100428.38;4961928;28;20481;-78
2023/12/20 04:02:43;;;;;;;14.45;4.78;;;;;;;5.53;92.18;100423.53;4961772;28;20070;-77
2023/12/20 04:05:10;;;;;;;11.57;4.40;;;;;;;5.56;92.11;100423.31;4962005;28;20152;-78
2023/12/20 04:07:37;;;;;;;15.52;4.28;;;;;;;5.67;91.45;100419.84;4960867;28;20047;-77
2023/12/20 04:10:05;;;;;;;15.52;4.20;;;;;;;5.62;91.63;100419.34;4958942;28;20078;-78
2023/12/20 04:12:34;;;;;;;15.45;4.15;;;;;;;5.55;91.70;100415.34;4956620;28;20043;-77
2023/12/20 04:15:01;;;;;;;11.48;3.88;;;;;;;5.63;91.32;100412.13;4955371;28;20405;-77
2023/12/20 04:17:28;;;;;;;18.60;4.20;;;;;;;5.59;91.05;100411.47;4955539;28;20039;-76
2023/12/20 04:19:54;;;;;;;14.65;3.53;;;;;;;5.50;91.01;100412.97;4956971;28;20067;-76
2023/12/20 04:22:22;;;;;;;15.18;4.03;;;;;;;5.54;90.94;100416.34;4958088;28;20423;-72
2023/12/20 04:24:49;;;;;;;15.57;3.25;;;;;;;5.43;91.15;100410.88;4958459;28;20051;-77
2023/12/20 04:27:15;;;;;;;12.85;2.90;;;;;;;5.36;91.13;100399.69;4958039;28;20047;-76
2023/12/20 04:29:42;;;;;;;19.58;3.65;;;;;;;5.26;91.46;100410.25;4958582;28;20061;-76
2023/12/20 04:32:09;;;;;;;16.25;3.20;;;;;;;5.23;92.21;100398.81;4958216;28;20055;-76
2023/12/20 04:34:38;;;;;;;11.73;3.50;;;;;;;5.30;91.39;100397.44;4955442;28;20047;-76
2023/12/20 04:37:05;;;;;;;19.30;4.03;;;;;;;5.23;91.68;100409.59;4957994;28;20051;-77
2023/12/20 04:39:31;;;;;;;14.40;3.75;;;;;;;5.10;92.24;100414.13;4958569;28;20122;-76
2023/12/20 04:41:58;;;;;;;13.50;3.72;;;;;;;5.10;92.27;100414.97;4960575;28;20147;-77
2023/12/20 04:44:26;;;;;;;23.90;3.85;;;;;;;5.09;92.18;100415.09;4959005;28;20047;-76
2023/12/20 04:46:53;;;;;;;19.75;3.90;;;;;;;5.00;92.15;100424.66;4961460;28;20392;-75
2023/12/20 04:49:19;;;;;;;12.95;3.20;;;;;;;4.95;92.41;100410.66;4962081;28;20511;-76
2023/12/20 04:51:46;;;;;;;12.20;3.25;;;;;;;5.10;91.21;100414.13;4961360;28;20047;-77
2023/12/20 04:54:13;;;;;;;12.85;2.78;;;;;;;5.03;91.48;100400.25;4968788;28;20051;-75
2023/12/20 04:56:40;;;;;;;17.42;3.42;;;;;;;4.90;92.12;100402.94;4977936;28;20110;-76
2023/12/20 04:59:06;;;;;;;12.95;3.70;;;;;;;4.82;92.27;100405.25;4983297;28;20083;-77
2023/12/20 05:01:33;;;;;;;12.57;3.55;;;;;;;4.61;92.55;100410.28;4983016;28;20055;-77
2023/12/20 05:04:00;;;;;;;15.55;3.80;;;;;;;4.72;92.37;100410.41;4982806;28;20043;-77
2023/12/20 05:06:26;;;;;;;11.15;3.67;;;;;;;4.71;92.48;100411.38;4978470;28;20051;-76
2023/12/20 05:08:53;;;;;;;12.18;2.97;;;;;;;4.47;92.98;100421.09;4983069;28;20070;-74
2023/12/20 05:11:19;;;;;;;31.80;4.70;;;;;;;4.51;93.08;100427.16;4983932;28;20047;-76
2023/12/20 05:13:46;;;;;;;16.30;3.22;;;;;;;4.56;93.72;100425.84;4982655;28;20046;-75
2023/12/20 05:16:17;;;;;;;18.35;2.78;;;;;;;4.63;93.16;100416.41;4984072;28;20042;-77
2023/12/20 05:18:45;;;;;;;22.65;3.40;;;;;;;4.83;92.03;100427.63;4984153;28;20463;-76
2023/12/20 05:21:12;;;;;;;25.58;4.65;;;;;;;4.67;91.69;100422.44;4968275;28;20062;-76
2023/12/20 05:23:38;;;;;;;20.85;3.10;;;;;;;4.66;91.85;100426.94;4984115;28;20051;-77
2023/12/20 05:26:06;;;;;;;22.30;2.80;;;;;;;4.66;91.48;100421.56;4984560;28;20062;-76
2023/12/20 05:28:33;;;;;;;15.32;2.95;;;;;;;4.70;90.57;100423.09;4984763;28;20066;-77
2023/12/20 05:30:59;;;;;;;17.08;2.70;;;;;;;4.60;91.04;100416.63;4986302;28;20054;-77
2023/12/20 05:33:26;;;;;;;18.67;3.17;;;;;;;4.60;90.62;100419.31;4983856;28;20069;-76
2023/12/20 05:35:53;;;;;;;21.08;2.60;;;;;;;4.60;90.71;100419.31;4983724;28;20117;-75
2023/12/20 05:38:19;;;;;;;14.73;2.55;;;;;;;4.41;91.13;100424.22;4984735;28;20101;-75
2023/12/20 05:40:46;;;;;;;23.90;2.58;;;;;;;4.38;91.41;100424.41;4984084;28;20051;-75
2023/12/20 05:43:12;;;;;;;26.73;2.35;;;;;;;4.27;91.98;100425.13;4984737;28;20069;-76
2023/12/20 05:45:39;;;;;;;20.73;2.25;;;;;;;4.35;91.13;100421.94;4984921;28;20042;-77
2023/12/20 05:48:06;;;;;;;21.50;2.40;;;;;;;4.32;91.47;100416.78;4986571;28;20113;-76
2023/12/20 05:50:32;;;;;;;20.80;2.55;;;;;;;4.33;90.62;100411.31;4985862;28;20054;-77
2023/12/20 05:52:59;;;;;;;26.00;2.53;;;;;;;4.23;91.08;100410.22;4984605;28;20062;-76
2023/12/20 05:55:25;;;;;;;20.58;3.75;;;;;;;4.12;91.50;100416.31;4964824;28;20051;-76
2023/12/20 05:57:52;;;;;;;14.25;2.28;;;;;;;3.99;92.35;100411.81;4967295;28;20051;-77
2023/12/20 06:00:19;;;;;;;16.98;2.38;;;;;;;4.09;91.90;100416.47;4966873;28;20043;-76
2023/12/20 06:02:45;;;;;;;31.05;3.60;;;;;;;4.02;91.92;100414.31;4966377;28;20062;-76
2023/12/20 06:05:12;;;;;;;22.40;2.33;;;;;;;3.88;92.37;100407.16;4967285;28;20051;-77
2023/12/20 06:07:39;;;;;;;24.50;3.28;;;;;;;4.02;92.10;100406.25;4968683;28;20067;-76
2023/12/20 06:10:06;;;;;;;20.73;2.70;;;;;;;3.95;92.34;100394.22;4968854;28;20051;-77
2023/12/20 06:12:35;;;;;;;21.73;2.67;;;;;;;3.97;91.96;100398.53;4970337;28;20047;-76
2023/12/20 06:15:03;;;;;;;24.08;2.55;;;;;;;3.86;91.86;100390.31;4974388;28;20110;-72
2023/12/20 06:17:31;;;;;;;19.50;2.95;;;;;;;3.98;92.14;100392.19;4975277;28;20050;-72
2023/12/20 06:19:57;;;;;;;12.85;2.15;;;;;;;3.93;91.75;100393.44;4975540;28;20099;-73
2023/12/20 06:25:02;;;;;;;18.95;2.88;;;;;;;3.85;91.09;100399.34;4974055;28;20070;-73
2023/12/20 06:27:32;;;;;;;17.92;3.10;;;;;;;3.83;92.32;100399.41;5002891;23;20040;-73
2023/12/20 06:29:59;;;;;;;18.05;2.38;;;;;;;4.00;91.69;100406.34;4995353;28;20057;-73
2023/12/20 06:32:25;;;;;;;26.58;3.28;;;;;;;4.00;91.03;100392.94;4994677;28;20035;-72
2023/12/20 06:34:52;;;;;;;15.88;2.63;;;;;;;4.09;91.63;100402.22;4997122;28;20031;-74
2023/12/20 06:37:19;;;;;;;19.23;3.15;;;;;;;4.02;91.75;100403.56;4999270;28;20034;-73
2023/12/20 06:39:46;;;;;;;19.95;3.20;;;;;;;3.90;92.06;100402.56;4998546;28;20054;-72
2023/12/20 06:44:54;;;;;;;17.65;2.92;;;;;;;4.08;91.54;100405.84;5193954;23;20094;-71
2023/12/20 06:49:55;;;;;;;14.98;2.92;;;;;;;4.23;90.50;100393.25;5282276;23;20059;-70
2023/12/20 06:52:22;;;;;;;24.25;4.18;;;;;;;4.11;91.13;100395.75;5128071;23;20035;-72
2023/12/20 06:54:49;;;;;;;18.95;4.32;;;;;;;4.14;91.51;100392.03;5284160;23;20019;-73
2023/12/20 06:59:57;;;;;;;23.13;3.50;;;;;;;4.26;90.64;100395.72;5132162;23;20038;-76
2023/12/20 07:02:24;;;;;;;21.90;2.67;;;;;;;4.18;90.48;100387.31;4974382;28;20102;-75
2023/12/20 07:04:51;;;;;;;19.90;2.78;;;;;;;4.26;90.37;100382.28;4974424;28;20058;-76
2023/12/20 07:07:18;;;;;;;12.70;2.90;;;;;;;4.18;90.55;100387.31;4974130;28;20472;-76
2023/12/20 07:09:45;;;;;;;22.58;3.28;;;;;;;4.22;90.05;100389.69;4974033;28;20110;-75
2023/12/20 07:12:11;;;;;;;13.77;3.42;;;;;;;4.31;89.95;100388.22;4973314;28;20066;-76
2023/12/20 07:14:38;;;;;;;29.25;3.60;;;;;;;4.25;89.63;100388.63;4973147;28;20078;-76
2023/12/20 07:17:05;;;;;;;25.33;3.47;;;;;;;4.34;89.45;100379.94;4972977;28;20050;-76
2023/12/20 07:19:32;;;;;;;21.10;3.17;;;;;;;4.29;89.61;100387.44;4972767;28;20414;-75
2023/12/20 07:21:59;;;;;;;15.57;3.13;;;;;;;4.36;89.35;100391.44;4973139;28;20055;-77
2023/12/20 07:24:25;;;;;;;17.52;2.35;;;;;;;4.37;89.48;100387.78;4973236;28;20051;-76
2023/12/20 07:26:52;;;;;;;20.10;3.42;;;;;;;4.40;88.84;100380.41;4973769;28;20051;-76
2023/12/20 07:29:18;;;;;;;23.23;3.33;;;;;;;4.41;89.05;100382.13;4956306;28;20570;-75
2023/12/20 07:31:45;;;;;;;19.77;3.45;;;;;;;4.40;88.49;100385.78;4973289;28;20077;-76
2023/12/20 07:34:11;;;;;;;13.43;2.97;;;;;;;4.27;89.10;100392.06;4973767;28;20453;-74
2023/12/20 07:36:39;;;;;;;17.55;3.03;;;;;;;4.39;88.88;100383.16;4973269;28;20388;-76
2023/12/20 07:39:05;;;;;;;17.98;3.08;;;;;;;4.41;88.80;100378.56;4973247;28;20696;-77
2023/12/20 07:41:32;;;;;;;16.80;2.65;;;;;;;4.32;89.19;100376.53;4972321;28;20120;-78
2023/12/20 07:43:59;;;;;;;12.48;3.85;;;;;;;4.29;88.77;100384.75;4972637;28;20106;-77
2023/12/20 07:46:25;;;;;;;17.23;3.22;;;;;;;4.33;89.18;100370.19;4973220;28;20050;-77
2023/12/20 07:48:53;;;;;;;14.48;2.47;;;;;;;4.45;87.97;100380.06;4973014;28;20415;-73
2023/12/20 07:51:21;;;;;;;16.80;2.63;;;;;;;4.44;87.75;100381.03;4973797;28;20484;-76
2023/12/20 07:53:47;;;;;;;19.42;2.88;;;;;;;4.45;87.48;100372.03;4972714;28;20053;-77
2023/12/20 07:56:15;;;;;;;27.83;3.70;;;;;;;4.46;87.22;100376.41;4972689;28;20070;-76
2023/12/20 07:58:43;;;;;;;22.67;3.28;;;;;;;4.33;87.87;100375.56;4972353;28;20058;-76
2023/12/20 08:01:19;;;;;;;18.42;2.35;;;;;;;4.52;86.53;100375.16;4973190;28;20122;-75
2023/12/20 08:03:46;;;;;;;12.98;2.78;;;;;;;4.48;86.84;100379.84;4972629;28;20526;-76
2023/12/20 08:06:13;;;;;;;9.43;2.08;;;;;;;4.55;86.87;100370.41;4972483;28;20594;-76
2023/12/20 08:08:40;;;;;;;13.80;3.25;;;;;;;4.55;86.12;100365.03;4973397;28;20051;-76
2023/12/20 08:11:07;;;;;;;18.95;3.58;;;;;;;4.43;86.51;100377.50;4973096;28;20074;-76
2023/12/20 08:13:34;;;;;;;20.20;3.00;;;;;;;4.52;86.71;100376.00;4973405;28;20123;-76
2023/12/20 08:16:02;;;;;;;24.20;3.00;;;;;;;4.58;86.56;100375.56;4973962;28;20055;-76
2023/12/20 08:18:31;;;;;;;15.85;2.22;;;;;;;4.49;87.02;100386.97;4972886;28;20102;-75
2023/12/20 08:20:58;;;;;;;16.83;3.25;;;;;;;4.55;87.03;100385.69;4973382;28;20047;-76
2023/12/20 08:23:24;;;;;;;14.63;2.95;;;;;;;4.57;87.02;100389.97;4972687;28;20416;-75
2023/12/20 08:25:53;;;;;;;16.05;2.85;;;;;;;4.57;86.93;100384.59;4972299;28;20082;-72
2023/12/20 08:28:20;;;;;;;20.33;2.63;;;;;;;4.60;86.17;100379.03;4973046;28;20043;-75
2023/12/20 08:30:47;;;;;;;11.25;2.50;;;;;;;4.68;86.44;100382.06;4971399;28;20053;-76
2023/12/20 08:33:14;;;;;;;14.65;2.78;;;;;;;4.62;86.63;100387.84;4972980;28;20574;-75
2023/12/20 08:35:40;;;;;;;16.75;3.22;;;;;;;4.65;86.45;100374.19;4972532;28;20058;-74
2023/12/20 08:38:07;;;;;;;12.75;2.15;;;;;;;4.76;85.85;100375.25;4972658;28;20047;-76
2023/12/20 08:40:34;;;;;;;20.38;3.95;;;;;;;4.72;85.53;100372.81;4972042;28;20166;-76
2023/12/20 08:43:00;;;;;;;18.13;2.85;;;;;;;4.76;86.15;100365.38;4972669;28;20059;-75
2023/12/20 08:45:27;;;;;;;10.98;2.03;;;;;;;4.66;86.49;100351.72;4972106;28;20100;-77
2023/12/20 08:47:54;;;;;;;25.08;2.67;;;;;;;4.83;85.71;100363.13;4972126;28;20066;-76
2023/12/20 08:50:23;;;;;;;20.70;3.08;;;;;;;4.93;85.39;100364.22;4972426;28;20047;-71
2023/12/20 08:52:50;;;;;;;13.88;2.22;;;;;;;4.98;85.41;100356.72;4972045;28;20043;-76
2023/12/20 08:55:18;;;;;;;17.95;2.33;;;;;;;4.99;85.82;100359.28;4952594;28;20075;-76
2023/12/20 08:57:44;;;;;;;11.73;2.38;;;;;;;4.93;85.58;100354.34;4951905;28;20098;-73
2023/12/20 09:00:12;;;;;;;23.90;3.22;;;;;;;4.85;86.46;100362.03;4951840;28;20071;-76
2023/12/20 09:02:39;;;;;;;16.48;2.67;;;;;;;4.94;86.53;100365.94;4952188;28;20496;-76
2023/12/20 09:05:06;;;;;;;14.55;2.17;;;;;;;5.08;85.25;100365.00;4952371;28;20113;-76
2023/12/20 09:07:34;;;;;;;18.75;3.47;;;;;;;5.13;84.97;100350.22;4952398;28;20054;-76
2023/12/20 09:10:01;;;;;;;18.80;3.22;;;;;;;5.17;85.30;100356.25;4952341;28;20051;-76
2023/12/20 09:12:28;;;;;;;17.65;2.17;;;;;;;5.28;83.94;100354.50;4952021;28;20070;-76
2023/12/20 09:14:55;;;;;;;21.38;3.05;;;;;;;5.12;84.78;100351.19;4952259;28;20055;-75
2023/12/20 09:17:25;;;;;;;16.95;3.20;;;;;;;5.23;84.22;100340.53;4952613;28;20401;-75
2023/12/20 09:19:53;;;;;;;16.17;3.10;;;;;;;5.24;83.97;100339.59;4952087;28;20047;-76
2023/12/20 09:22:20;;;;;;;17.50;2.75;;;;;;;5.18;84.19;100345.41;4952398;28;20500;-76
2023/12/20 09:24:47;;;;;;;11.77;2.30;;;;;;;5.26;83.52;100334.94;4951926;28;20057;-76
2023/12/20 09:27:15;;;;;;;19.58;2.58;;;;;;;5.25;83.91;100341.31;4952817;28;20070;-75
2023/12/20 09:29:41;;;;;;;17.48;2.85;;;;;;;5.23;84.28;100345.03;4951925;28;20054;-74
2023/12/20 09:32:08;;;;;;;14.93;2.95;;;;;;;5.14;84.65;100338.53;4951647;28;20148;-75
2023/12/20 09:34:34;;;;;;;21.98;2.95;;;;;;;5.27;84.27;100342.03;4952419;28;20051;-77
2023/12/20 09:37:02;;;;;;;23.90;2.60;;;;;;;5.23;84.54;100340.53;4952827;28;20051;-77
2023/12/20 09:39:29;;;;;;;16.40;2.60;;;;;;;5.38;83.58;100335.03;4952476;28;20047;-77
2023/12/20 09:42:04;;;;;;;16.13;2.92;;;;;;;5.35;83.20;100335.25;4935730;28;20069;-76
2023/12/20 09:44:32;;;;;;;18.02;2.88;;;;;;;5.31;83.53;100320.28;4952633;28;20133;-75
2023/12/20 09:47:02;;;;;;;19.65;3.33;;;;;;;5.28;83.06;100338.38;4953028;28;20472;-75
2023/12/20 09:49:30;;;;;;;19.67;2.92;;;;;;;5.24;83.57;100325.28;4952318;28;20047;-75
2023/12/20 09:51:57;;;;;;;19.98;2.55;;;;;;;5.36;82.97;100321.69;4952471;28;20055;-73
2023/12/20 09:54:25;;;;;;;22.92;2.88;;;;;;;5.35;83.05;100317.28;4987167;28;20047;-73
2023/12/20 09:56:51;;;;;;;21.67;3.00;;;;;;;5.38;82.72;100316.19;4996175;28;20074;-73
2023/12/20 09:59:18;;;;;;;22.60;3.97;;;;;;;5.43;82.18;100319.41;4994621;28;20073;-73
2023/12/20 10:01:46;;;;;;;20.88;3.15;;;;;;;5.40;82.36;100322.31;4995274;28;20574;-72
2023/12/20 10:04:13;;;;;;;17.27;2.97;;;;;;;5.32;82.03;100319.31;4995532;28;20122;-73
2023/12/20 10:06:56;;;;;;;16.15;2.40;;;;;;;5.45;80.73;100306.72;4994651;28;20061;-71
2023/12/20 10:09:23;;;;;;;13.25;2.40;;;;;;;5.44;81.82;100299.63;4994726;28;20035;-73
2023/12/20 10:11:54;;;;;;;10.18;2.05;;;;;;;5.48;81.70;100293.03;4996184;28;20049;-72
2023/12/20 10:14:23;;;;;;;17.10;2.80;;;;;;;5.51;81.14;100288.31;4996335;28;20087;-72
2023/12/20 10:16:50;;;;;;;16.50;3.50;;;;;;;5.49;82.04;100286.66;5170137;23;20050;-74
2023/12/20 10:19:18;;;;;;;19.70;2.97;;;;;;;5.46;81.70;100287.75;4975393;28;20070;-73
2023/12/20 10:21:45;;;;;;;16.25;2.33;;;;;;;5.45;81.24;100272.59;4955483;28;20059;-72
2023/12/20 10:24:17;;;;;;;12.55;3.10;;;;;;;5.52;80.37;100271.19;4976462;28;20053;-73
2023/12/20 10:26:44;;;;;;;13.82;2.85;;;;;;;5.43;80.06;100273.69;4975341;28;20066;-72
2023/12/20 10:29:11;;;;;;;19.85;3.42;;;;;;;5.40;80.98;100271.22;4974995;28;20044;-73
2023/12/20 10:31:40;;;;;;;13.20;2.20;;;;;;;5.41;80.76;100267.56;4976578;28;20043;-71
2023/12/20 10:37:02;;;;;;;15.10;2.70;;;;;;;5.27;80.74;100253.31;5072987;23;20067;-71
2023/12/20 10:39:29;;;;;;;20.10;2.80;;;;;;;5.46;79.77;100249.25;4976396;28;20102;-71
2023/12/20 10:41:55;;;;;;;17.20;2.72;;;;;;;5.42;80.26;100242.38;5085821;23;20019;-72
2023/12/20 10:46:58;;;;;;;17.92;3.08;;;;;;;5.60;79.53;100224.84;4936287;28;20074;-72
2023/12/20 10:49:29;;;;;;;16.65;3.00;;;;;;;5.59;79.81;100228.50;4943065;28;20036;-72
2023/12/20 10:51:59;;;;;;;15.98;2.85;;;;;;;5.64;79.39;100230.88;4940482;28;20043;-72
2023/12/20 10:54:26;;;;;;;22.55;3.10;;;;;;;5.67;78.68;100226.09;4956938;28;20032;-71
2023/12/20 10:56:53;;;;;;;18.60;2.47;;;;;;;5.64;78.91;100223.66;4957433;28;20032;-73
2023/12/20 10:59:20;;;;;;;18.95;3.35;;;;;;;5.58;79.69;100213.34;4955902;28;20052;-73
2023/12/20 11:01:48;;;;;;;9.70;2.25;;;;;;;5.47;80.40;100213.31;4956171;28;20027;-74
2023/12/20 11:04:28;;;;;;;16.60;3.60;;;;;;;5.50;79.17;100202.31;4955203;29;20060;-74
2023/12/20 11:07:04;;;;;;;20.15;3.38;;;;;;;5.65;78.44;100198.47;4959748;28;20031;-72
2023/12/20 11:09:40;;;;;;;25.00;2.90;;;;;;;5.61;79.46;100197.00;4956472;28;20043;-71
2023/12/20 11:12:16;;;;;;;22.35;2.80;;;;;;;5.49;79.58;100200.59;4955616;29;20543;-74
2023/12/20 11:14:47;;;;;;;14.40;3.08;;;;;;;5.38;80.78;100187.09;4955992;28;20064;-73
2023/12/20 11:17:16;;;;;;;18.83;3.28;;;;;;;5.53;80.56;100192.19;4956628;29;20043;-73
2023/12/20 11:19:58;;;;;;;18.10;2.63;;;;;;;5.47;81.34;100183.72;4955848;29;20044;-73
2023/12/20 11:22:25;;;;;;;;;;;;;;;5.52;80.33;100173.47;4945717;28;20130;-71
2023/12/20 11:24:53;;;;;;;19.80;3.08;;;;;;;5.48;81.15;100172.84;4958936;29;20021;-73
2023/12/20 11:27:20;;;;;;;17.73;2.63;;;;;;;5.53;80.47;100164.44;4959936;28;20055;-73
2023/12/20 11:29:56;;;;;;;12.57;2.92;;;;;;;5.43;81.71;100160.72;4943043;29;20054;-72
2023/12/20 11:32:29;;;;;;;23.02;3.10;;;;;;;5.35;81.51;100165.84;4959694;28;20111;-72
2023/12/20 11:34:59;;;;;;;24.15;2.95;;;;;;;5.34;82.64;100158.75;4959963;28;20093;-71
2023/12/20 11:42:51;;;;;;;17.33;2.67;;;;;;;5.43;81.91;100125.78;5034937;23;20027;-72
2023/12/20 12:01:22;;;;;;;20.30;3.83;;;;;;;5.24;82.46;100108.34;5020251;23;20050;-71
2023/12/20 12:04:01;;;;;;;20.55;2.92;;;;;;;5.18;83.36;100106.13;4979267;28;20031;-71
2023/12/20 12:06:28;;;;;;;24.13;3.08;;;;;;;5.29;82.21;100091.84;4978247;28;20047;-73
2023/12/20 12:08:55;;;;;;;18.75;3.63;;;;;;;5.28;82.13;100091.00;4979339;28;20085;-71